This is the latest recevied weather packets stored in our database for station/object HP3ICC-22. If no packets are shown the sender has not sent any weather packets the latest 10 day(s).
| Time | Temp. | Humidity | Pressure | Rain* | Wind** | Luminosity | Snow |
|---|---|---|---|---|---|---|---|
| 1777670428 | 12.22° C | 82% | 1009 hPa | 2.79 mm | - | - | - |
| 1777669287 | 11.67° C | 86% | 1010 hPa | 0.51 mm | - | - | - |
| 1777669227 | 11.67° C | 86% | 1010 hPa | 0.51 mm | - | - | - |
| 1777668087 | 11.67° C | 87% | 1010 hPa | 0.51 mm | - | - | - |
| 1777668027 | 11.67° C | 87% | 1010 hPa | 0.51 mm | - | - | - |
| 1777666886 | 11.11° C | 82% | 1009 hPa | 0.76 mm | - | - | - |
| 1777666826 | 11.11° C | 82% | 1009 hPa | 0.76 mm | - | - | - |
| 1777665686 | 10.56° C | 86% | 1010 hPa | 1.78 mm | - | - | - |
| 1777665626 | 10.56° C | 86% | 1010 hPa | 1.78 mm | - | - | - |
| 1777664485 | 10.56° C | 86% | 1010 hPa | 2.79 mm | - | - | - |
| 1777664425 | 10.56° C | 86% | 1010 hPa | 2.79 mm | - | - | - |
| 1777663285 | 11.67° C | 81% | 1010 hPa | 0.51 mm | - | - | - |
| 1777662084 | 11.67° C | 85% | 1011 hPa | 1.02 mm | - | - | - |
| 1777662024 | 11.67° C | 85% | 1011 hPa | 1.02 mm | - | - | - |
| 1777660884 | 11.67° C | 84% | 1011 hPa | 0.76 mm | - | - | - |
| 1777660824 | 11.67° C | 84% | 1011 hPa | 0.76 mm | - | - | - |
| 1777659683 | 12.22° C | 81% | 1012 hPa | 0 mm | - | - | - |
| 1777659623 | 12.22° C | 81% | 1012 hPa | 0 mm | - | - | - |
| 1777658483 | 11.67° C | 81% | 1012 hPa | 0 mm | - | - | - |
| 1777658423 | 11.67° C | 81% | 1012 hPa | 0 mm | - | - | - |
| 1777657282 | 11.67° C | 79% | 1012 hPa | 0 mm | - | - | - |
| 1777657222 | 11.67° C | 79% | 1012 hPa | 0 mm | - | - | - |
| 1777656082 | 12.78° C | 75% | 1012 hPa | 0 mm | - | - | - |
| 1777656022 | 12.78° C | 75% | 1012 hPa | 0 mm | - | - | - |
| 1777654881 | 12.22° C | 75% | 1013 hPa | 0.25 mm | - | - | - |
* Rain latest hour (hover to see other rain measurements)
** Current wind speed in m/s (hover to see current wind gust speed)